Time;durP1;ratioP1;P1;durP2;ratioP2;P2;SDS_P1;SDS_P2;PMS_P1;PMS_P2;Temp;Humidity;BMP_temperature;BMP_pressure;BME280_temperature;BME280_humidity;BME280_pressure;Samples;Min_cycle;Max_cycle;Signal;HPM_P1;HPM_P2
2021/04/20 00:00:11;;;;;;;34.00;23.07;;;;;;;4.96;95.18;96474.28;1781071;79;21131;-84
2021/04/20 00:02:40;;;;;;;30.95;21.60;;;;;;;4.98;95.21;96472.20;1763174;80;21121;-84
2021/04/20 00:05:13;;;;;;;27.55;19.35;;;;;;;5.01;95.24;96468.28;1768912;79;21149;-84
2021/04/20 00:07:40;;;;;;;33.78;23.12;;;;;;;5.06;95.25;96469.12;1783741;79;21107;-84
2021/04/20 00:10:11;;;;;;;35.73;25.10;;;;;;;5.07;95.20;96469.94;1770731;80;21521;-84
2021/04/20 00:12:39;;;;;;;32.90;22.27;;;;;;;5.07;95.17;96471.25;1777831;80;21116;-84
2021/04/20 00:15:14;;;;;;;34.48;23.25;;;;;;;5.07;95.11;96471.25;1772666;80;21128;-84
2021/04/20 00:17:41;;;;;;;34.85;24.45;;;;;;;5.01;95.03;96464.34;1777332;80;21084;-84
2021/04/20 00:20:13;;;;;;;31.87;21.90;;;;;;;4.93;95.05;96459.53;1774220;79;21138;-83
2021/04/20 00:22:40;;;;;;;33.20;22.22;;;;;;;4.92;95.09;96464.48;1769488;80;21096;-84
2021/04/20 00:25:11;;;;;;;40.43;25.27;;;;;;;4.91;95.20;96466.32;1768522;80;21167;-84
2021/04/20 00:27:38;;;;;;;36.65;24.77;;;;;;;4.90;95.26;96466.05;1779759;80;21129;-84
2021/04/20 00:30:09;;;;;;;38.67;23.50;;;;;;;4.86;95.23;96466.80;1771037;80;21159;-84
2021/04/20 00:32:37;;;;;;;33.60;22.35;;;;;;;4.80;95.26;96465.16;1762374;80;21102;-84
2021/04/20 00:35:08;;;;;;;37.80;24.45;;;;;;;4.70;95.36;96459.25;1767473;80;21147;-84
2021/04/20 00:37:35;;;;;;;;;;;;;;;4.65;95.45;96462.63;1778312;80;21109;-84
2021/04/20 00:40:08;;;;;;;42.17;24.57;;;;;;;4.66;95.61;96464.20;1782608;79;20201;-84
2021/04/20 00:42:57;;;;;;;39.05;25.50;;;;;;;4.70;95.72;96460.57;1801887;79;21111;-84
2021/04/20 00:45:30;;;;;;;37.13;24.72;;;;;;;4.75;95.83;96457.99;1774349;79;21122;-84
2021/04/20 00:47:58;;;;;;;45.28;27.10;;;;;;;4.77;95.80;96456.70;1770467;79;21119;-84
2021/04/20 00:50:30;;;;;;;38.98;26.70;;;;;;;4.84;95.83;96458.37;1775741;80;21158;-84
2021/04/20 00:52:57;;;;;;;39.55;25.08;;;;;;;4.88;95.83;96451.06;1777687;80;21135;-84
2021/04/20 00:55:25;;;;;;;33.15;23.27;;;;;;;4.92;95.78;96450.04;1786331;80;21604;-84
2021/04/20 00:57:52;;;;;;;42.65;25.60;;;;;;;4.90;95.65;96445.03;1759367;80;21118;-84
2021/04/20 01:00:29;;;;;;;36.35;23.22;;;;;;;4.90;95.67;96441.62;1773249;79;21178;-84
2021/04/20 01:02:57;;;;;;;36.85;22.73;;;;;;;4.91;95.64;96440.58;1777264;80;21105;-83
2021/04/20 01:05:35;;;;;;;37.63;24.60;;;;;;;4.86;95.54;96436.59;1777473;80;21507;-83
2021/04/20 01:08:11;;;;;;;34.35;23.20;;;;;;;4.81;95.51;96441.27;1773505;79;21162;-84
2021/04/20 01:10:43;;;;;;;38.80;26.00;;;;;;;4.79;95.51;96441.25;1766121;80;21464;-84
2021/04/20 01:13:13;;;;;;;34.63;24.77;;;;;;;4.76;95.52;96440.67;1779760;79;21475;-84
2021/04/20 01:15:47;;;;;;;35.38;23.25;;;;;;;4.78;95.60;96441.74;1788944;79;21142;-84
2021/04/20 01:18:22;;;;;;;34.83;21.95;;;;;;;4.80;95.59;96443.63;1780134;80;21116;-84
2021/04/20 01:20:53;;;;;;;31.87;20.68;;;;;;;4.81;95.62;96446.53;1765647;80;21155;-84
2021/04/20 01:23:31;;;;;;;30.00;21.10;;;;;;;4.82;95.55;96443.38;1761133;80;21116;-84
2021/04/20 01:25:59;;;;;;;31.27;22.40;;;;;;;4.81;95.53;96439.17;1766843;80;21096;-84
2021/04/20 01:28:28;;;;;;;34.18;21.10;;;;;;;4.80;95.50;96439.69;1782632;80;21119;-84
2021/04/20 01:30:57;;;;;;;34.55;23.12;;;;;;;4.81;95.52;96443.91;1747193;80;21192;-83
2021/04/20 01:33:24;;;;;;;30.52;20.88;;;;;;;4.78;95.47;96439.11;1786993;79;21135;-83
2021/04/20 01:35:52;;;;;;;35.38;22.13;;;;;;;4.79;95.48;96453.06;1787640;79;21211;-84
2021/04/20 01:38:19;;;;;;;31.20;20.60;;;;;;;4.75;95.37;96452.73;1768041;80;21119;-84
2021/04/20 01:40:47;;;;;;;32.73;21.68;;;;;;;4.75;95.33;96451.43;1784977;79;21127;-84
2021/04/20 01:43:14;;;;;;;38.45;22.13;;;;;;;4.70;95.19;96455.31;1781701;80;21460;-84
2021/04/20 01:45:43;;;;;;;28.65;17.40;;;;;;;4.64;95.07;96455.75;1765529;80;21515;-84
2021/04/20 01:48:11;;;;;;;34.05;20.82;;;;;;;4.61;95.15;96457.56;1764120;79;21507;-84
2021/04/20 01:50:43;;;;;;;38.10;23.02;;;;;;;4.56;95.34;96457.51;1757605;80;21498;-84
2021/04/20 01:53:11;;;;;;;32.40;22.05;;;;;;;4.53;95.49;96461.14;1774443;80;21112;-84
2021/04/20 01:55:38;;;;;;;34.13;21.33;;;;;;;4.51;95.81;96452.20;1787519;79;21126;-84
2021/04/20 01:58:07;;;;;;;36.65;22.27;;;;;;;4.53;95.96;96458.52;1780938;80;21108;-84
2021/04/20 02:00:38;;;;;;;42.23;24.85;;;;;;;4.55;95.93;96457.75;1782700;80;21123;-84
2021/04/20 02:03:08;;;;;;;38.67;22.50;;;;;;;4.55;95.96;96453.30;1787068;80;21103;-84
2021/04/20 02:05:37;;;;;;;29.42;16.62;;;;;;;4.57;96.10;96455.16;1774492;80;21167;-83
2021/04/20 02:08:06;;;;;;;35.52;23.55;;;;;;;4.58;96.26;96448.86;1766092;80;21516;-83
2021/04/20 02:10:34;;;;;;;37.00;23.73;;;;;;;4.63;96.26;96455.48;1768048;80;21187;-83
2021/04/20 02:13:01;;;;;;;40.65;25.15;;;;;;;4.70;96.30;96454.80;1761270;80;21169;-83
2021/04/20 02:15:29;;;;;;;42.85;25.52;;;;;;;4.75;96.30;96456.16;1785432;79;21155;-83
2021/04/20 02:17:57;;;;;;;38.55;24.27;;;;;;;4.82;96.31;96457.83;1789460;79;21103;-83
2021/04/20 02:20:28;;;;;;;36.40;22.87;;;;;;;4.87;96.24;96450.78;1759815;80;21555;-83
2021/04/20 02:22:55;;;;;;;;;;;;;;;4.91;96.12;96448.45;1780191;80;21133;-83
2021/04/20 02:25:24;;;;;;;36.05;23.07;;;;;;;4.93;96.01;96446.41;1764217;80;20112;-83
2021/04/20 02:27:53;;;;;;;35.23;23.83;;;;;;;4.92;96.06;96446.09;1764708;80;21172;-83
2021/04/20 02:30:21;;;;;;;34.53;23.65;;;;;;;4.83;95.93;96446.28;1777611;80;21170;-84
2021/04/20 02:32:50;;;;;;;36.23;23.00;;;;;;;4.78;95.89;96446.99;1775676;80;21113;-83
2021/04/20 02:35:19;;;;;;;39.27;24.07;;;;;;;4.79;95.97;96445.19;1764173;80;21147;-83
2021/04/20 02:37:48;;;;;;;37.78;23.40;;;;;;;4.79;96.00;96440.73;1767484;80;21532;-83
2021/04/20 02:40:25;;;;;;;37.08;23.73;;;;;;;4.83;96.10;96439.71;1772669;80;21140;-83
2021/04/20 02:42:54;;;;;;;40.17;25.35;;;;;;;4.86;96.15;96440.53;1761052;80;21149;-83
2021/04/20 02:45:24;;;;;;;36.77;22.52;;;;;;;4.87;96.06;96442.11;1776039;80;21178;-83
2021/04/20 02:47:54;;;;;;;37.13;23.52;;;;;;;4.80;95.96;96438.38;1761752;79;21146;-83
2021/04/20 02:50:29;;;;;;;37.08;23.25;;;;;;;4.74;95.86;96440.66;1739049;80;21155;-83
2021/04/20 02:52:57;;;;;;;35.50;22.45;;;;;;;4.71;95.84;96443.25;1751568;81;21517;-84
2021/04/20 02:55:26;;;;;;;38.15;22.75;;;;;;;4.71;95.80;96441.15;1745158;81;21107;-84
2021/04/20 02:57:57;;;;;;;34.65;22.50;;;;;;;4.72;95.77;96442.73;1712044;82;21173;-84
2021/04/20 03:00:26;;;;;;;40.55;24.50;;;;;;;4.70;95.75;96431.16;1726655;81;21150;-84
2021/04/20 03:02:59;;;;;;;36.08;23.52;;;;;;;4.64;95.83;96432.64;1735798;81;21111;-84
2021/04/20 03:05:29;;;;;;;36.38;24.43;;;;;;;4.62;95.93;96438.14;1741710;81;21119;-84
2021/04/20 03:07:57;;;;;;;34.80;20.75;;;;;;;4.65;95.97;96432.42;1739991;81;21147;-84
2021/04/20 03:10:27;;;;;;;31.25;20.05;;;;;;;4.67;95.95;96430.34;1716789;82;21131;-84
2021/04/20 03:12:55;;;;;;;33.80;21.00;;;;;;;4.66;95.82;96434.53;1733587;82;21170;-84
2021/04/20 03:15:24;;;;;;;34.43;20.35;;;;;;;4.63;95.72;96433.16;1741189;82;21163;-84
2021/04/20 03:17:51;;;;;;;36.42;22.77;;;;;;;4.62;95.71;96426.33;1749695;81;21316;-84
2021/04/20 03:20:20;;;;;;;36.00;21.97;;;;;;;4.56;95.70;96423.38;1762596;81;21550;-84
2021/04/20 03:22:49;;;;;;;34.35;21.27;;;;;;;4.52;95.76;96426.75;1720633;82;21121;-84
2021/04/20 03:25:26;;;;;;;41.40;22.32;;;;;;;4.46;95.80;96426.66;1730060;82;21515;-84
2021/04/20 03:27:57;;;;;;;31.65;19.87;;;;;;;4.45;95.77;96425.59;1739358;82;21134;-83
2021/04/20 03:30:31;;;;;;;34.05;20.80;;;;;;;4.44;95.77;96425.33;1736834;82;21131;-83
2021/04/20 03:33:19;;;;;;;38.60;22.80;;;;;;;4.42;95.72;96426.88;1760619;81;21292;-84
2021/04/20 03:36:12;;;;;;;39.83;23.38;;;;;;;4.40;95.72;96430.79;1750652;81;21197;-83
2021/04/20 03:39:05;;;;;;;40.73;25.17;;;;;;;4.36;95.78;96430.98;1735183;81;21167;-84
2021/04/20 03:41:43;;;;;;;39.38;22.85;;;;;;;4.33;95.90;96431.47;1709642;82;21131;-84
2021/04/20 03:44:15;;;;;;;38.53;23.87;;;;;;;4.34;96.02;96427.81;1750398;81;21115;-84
2021/04/20 03:46:46;;;;;;;40.90;22.42;;;;;;;4.34;96.14;96436.48;1742412;81;21345;-84
2021/04/20 03:49:24;;;;;;;39.50;23.32;;;;;;;4.34;96.18;96427.81;1740722;80;21161;-84
2021/04/20 03:51:55;;;;;;;35.88;21.90;;;;;;;4.33;96.30;96427.02;1766712;80;21114;-84
2021/04/20 03:54:23;;;;;;;;;;;;;;;4.34;96.26;96431.23;1779137;80;21118;-84
2021/04/20 03:56:54;;;;;;;34.98;19.90;;;;;;;4.36;96.54;96427.05;1781170;79;20119;-84
2021/04/20 03:59:24;;;;;;;30.52;16.82;;;;;;;4.34;96.61;96421.25;1781227;80;21151;-84
2021/04/20 04:01:52;;;;;;;34.75;19.90;;;;;;;4.32;97.02;96425.95;1750196;80;21194;-84
2021/04/20 04:04:25;;;;;;;31.70;17.57;;;;;;;4.30;97.15;96421.47;1768197;80;21534;-84
2021/04/20 04:06:54;;;;;;;34.30;18.70;;;;;;;4.31;97.31;96422.53;1778810;80;21551;-84
2021/04/20 04:09:21;;;;;;;40.40;22.00;;;;;;;4.32;97.23;96426.74;1779395;80;21260;-84
2021/04/20 04:12:07;;;;;;;37.30;20.40;;;;;;;4.35;97.21;96430.70;1789284;80;21151;-84
2021/04/20 04:14:37;;;;;;;34.65;19.70;;;;;;;4.35;97.25;96418.90;1759236;80;21510;-84
2021/04/20 04:17:07;;;;;;;31.50;18.30;;;;;;;4.32;97.65;96416.77;1758610;80;21138;-84
2021/04/20 04:19:38;;;;;;;;;;;;;;;4.21;97.72;96407.96;1759050;80;21506;-84
2021/04/20 04:22:17;;;;;;;34.85;19.05;;;;;;;4.31;97.92;96423.05;1744615;80;20408;-84
2021/04/20 04:24:54;;;;;;;31.10;17.85;;;;;;;4.28;98.13;96423.55;1749435;80;21163;-82
2021/04/20 04:27:31;;;;;;;36.35;19.85;;;;;;;4.26;98.26;96421.69;1764369;80;21130;-83
2021/04/20 04:30:03;;;;;;;31.07;18.10;;;;;;;4.27;98.10;96421.44;1763887;81;21134;-84
2021/04/20 04:32:31;;;;;;;33.38;19.37;;;;;;;4.28;98.29;96420.41;1746524;80;21589;-84
2021/04/20 04:35:01;;;;;;;29.98;16.35;;;;;;;4.30;98.45;96418.33;1743223;80;21135;-83
2021/04/20 04:37:28;;;;;;;34.45;18.95;;;;;;;4.36;98.65;96417.38;1756522;80;21119;-84
2021/04/20 04:39:58;;;;;;;38.23;21.55;;;;;;;4.40;98.52;96417.67;1719612;81;21523;-84
2021/04/20 04:42:25;;;;;;;35.70;21.00;;;;;;;4.47;98.56;96418.27;1757099;80;21159;-84
2021/04/20 04:44:52;;;;;;;32.33;18.98;;;;;;;4.54;98.44;96431.23;1774432;80;21150;-84
2021/04/20 04:47:20;;;;;;;31.07;17.77;;;;;;;4.57;98.40;96428.11;1774296;80;21461;-83
2021/04/20 04:49:48;;;;;;;30.82;17.23;;;;;;;4.56;98.42;96428.63;1777623;80;21124;-84
2021/04/20 04:52:18;;;;;;;34.38;20.15;;;;;;;4.57;98.33;96433.36;1793019;80;21111;-84
2021/04/20 04:54:46;;;;;;;32.20;19.15;;;;;;;4.57;98.37;96429.42;1783018;80;21499;-84
2021/04/20 04:57:14;;;;;;;31.12;18.82;;;;;;;4.58;98.27;96427.86;1784917;80;21109;-84
2021/04/20 04:59:44;;;;;;;31.50;18.75;;;;;;;4.63;98.21;96431.85;1792266;79;21502;-84
2021/04/20 05:02:12;;;;;;;34.13;18.77;;;;;;;4.70;98.16;96427.22;1783351;80;21159;-84
2021/04/20 05:04:39;;;;;;;33.50;20.90;;;;;;;4.80;98.09;96432.33;1771202;80;21122;-84
2021/04/20 05:07:07;;;;;;;32.00;18.77;;;;;;;4.86;97.95;96433.44;1786099;79;21161;-84
2021/04/20 05:09:35;;;;;;;31.12;17.95;;;;;;;4.94;97.88;96433.54;1776013;80;21183;-83
2021/04/20 05:12:03;;;;;;;35.43;21.77;;;;;;;4.99;97.80;96427.02;1788493;80;21154;-84
2021/04/20 05:14:30;;;;;;;33.80;20.27;;;;;;;5.06;97.70;96431.54;1795242;80;21130;-84
2021/04/20 05:16:57;;;;;;;32.53;19.55;;;;;;;5.17;97.66;96433.23;1776291;79;21131;-84
2021/04/20 05:19:32;;;;;;;35.80;19.70;;;;;;;5.35;97.64;96432.91;1782681;80;21186;-84
2021/04/20 05:22:01;;;;;;;33.42;19.02;;;;;;;5.75;97.83;96430.33;1773027;79;21473;-84
2021/04/20 05:24:29;;;;;;;29.52;18.85;;;;;;;6.75;97.70;96424.61;1776119;80;21140;-84
2021/04/20 05:26:57;;;;;;;28.42;18.15;;;;;;;7.86;97.48;96425.86;1778511;80;21512;-84
2021/04/20 05:29:24;;;;;;;27.32;16.70;;;;;;;8.81;96.65;96426.47;1781933;80;21139;-84
2021/04/20 05:31:52;;;;;;;24.35;16.23;;;;;;;9.41;93.83;96422.70;1770461;80;21514;-84
2021/04/20 05:34:21;;;;;;;25.48;15.70;;;;;;;9.01;90.96;96426.39;1787435;80;21103;-84
2021/04/20 05:36:50;;;;;;;22.50;15.50;;;;;;;8.66;90.00;96421.24;1773180;80;21151;-84
2021/04/20 05:39:18;;;;;;;22.20;15.32;;;;;;;8.40;89.63;96420.53;1781279;80;21128;-84
2021/04/20 05:41:46;;;;;;;21.52;14.65;;;;;;;8.21;89.77;96426.36;1780264;79;21107;-83
2021/04/20 05:44:15;;;;;;;24.80;15.83;;;;;;;8.08;89.79;96430.08;1772610;80;21103;-84
2021/04/20 05:46:47;;;;;;;24.55;15.23;;;;;;;7.81;89.40;96432.99;1770875;80;21133;-84
2021/04/20 05:49:16;;;;;;;23.92;14.70;;;;;;;7.54;89.26;96435.88;1788858;80;21311;-84
2021/04/20 05:51:44;;;;;;;24.50;16.25;;;;;;;7.20;89.26;96436.90;1764154;80;21104;-84
2021/04/20 05:54:11;;;;;;;26.85;15.95;;;;;;;6.92;89.53;96439.45;1768482;80;21113;-84
2021/04/20 05:56:38;;;;;;;26.95;16.25;;;;;;;6.79;90.05;96440.72;1774600;80;21115;-84
2021/04/20 05:59:06;;;;;;;26.80;16.97;;;;;;;6.71;90.34;96444.63;1762689;80;21104;-84
2021/04/20 06:01:40;;;;;;;25.57;16.73;;;;;;;6.78;90.66;96445.72;1752222;80;21135;-84
2021/04/20 06:04:10;;;;;;;27.25;17.25;;;;;;;7.28;90.95;96445.59;1783476;80;21111;-84
2021/04/20 06:06:41;;;;;;;30.63;19.53;;;;;;;7.34;89.74;96439.30;1789234;79;21148;-84
2021/04/20 06:09:10;;;;;;;27.77;17.15;;;;;;;7.58;89.77;96444.32;1774832;80;21144;-84
2021/04/20 06:11:40;;;;;;;27.52;18.17;;;;;;;7.73;89.60;96450.92;1772132;80;21135;-84
2021/04/20 06:14:08;;;;;;;26.80;16.62;;;;;;;7.85;89.56;96447.23;1788571;79;21182;-84
2021/04/20 06:16:36;;;;;;;23.92;16.05;;;;;;;8.29;90.35;96441.64;1764949;79;21108;-84
2021/04/20 06:19:05;;;;;;;23.05;15.25;;;;;;;9.09;90.95;96435.59;1785673;80;21202;-84
2021/04/20 06:21:35;;;;;;;20.60;14.55;;;;;;;9.56;88.84;96434.24;1769299;80;21113;-84
2021/04/20 06:24:05;;;;;;;;;;;;;;;9.27;86.58;96444.21;1786727;79;21631;-84
2021/04/20 06:26:35;;;;;;;23.90;15.48;;;;;;;8.78;85.15;96444.98;1757128;80;20132;-84
2021/04/20 06:29:03;;;;;;;;;;;;;;;8.38;85.42;96454.34;1770097;80;21187;-83
2021/04/20 06:31:33;;;;;;;21.35;15.08;;;;;;;7.92;85.38;96452.52;1770559;80;20132;-84
2021/04/20 06:34:03;;;;;;;22.20;13.98;;;;;;;7.70;86.10;96448.03;1785605;79;21147;-84
2021/04/20 06:36:31;;;;;;;20.40;14.23;;;;;;;7.61;86.72;96445.14;1775095;80;21487;-84
2021/04/20 06:38:59;;;;;;;20.77;14.13;;;;;;;7.68;87.04;96443.55;1779319;79;21203;-84
2021/04/20 06:41:30;;;;;;;21.50;14.65;;;;;;;7.80;87.17;96448.04;1777538;80;21123;-83
2021/04/20 06:44:09;;;;;;;24.47;15.40;;;;;;;7.95;87.34;96447.23;1776003;80;21076;-83
2021/04/20 06:46:56;;;;;;;22.40;14.90;;;;;;;8.27;87.66;96445.08;1763183;80;21201;-83
2021/04/20 06:49:30;;;;;;;22.82;14.98;;;;;;;8.69;87.34;96440.52;1774331;80;21120;-83
2021/04/20 06:52:04;;;;;;;19.87;14.33;;;;;;;9.02;86.30;96441.19;1767522;80;21080;-83
2021/04/20 06:54:40;;;;;;;18.70;13.08;;;;;;;9.28;85.24;96435.21;1779927;80;21240;-84
2021/04/20 06:57:17;;;;;;;18.20;12.28;;;;;;;9.49;84.58;96437.21;1769868;80;21196;-83
2021/04/20 07:00:20;;;;;;;18.87;13.13;;;;;;;9.93;84.17;96439.79;1772520;79;21155;-83
2021/04/20 07:02:56;;;;;;;18.90;12.40;;;;;;;11.69;86.20;96433.25;1763673;80;21485;-84
2021/04/20 07:05:48;;;;;;;14.63;11.88;;;;;;;14.10;81.71;96429.55;1786087;79;21115;-84
2021/04/20 07:08:37;;;;;;;17.42;12.98;;;;;;;15.22;77.86;96430.01;1770853;79;21119;-84
2021/04/20 07:11:11;;;;;;;17.20;13.43;;;;;;;15.10;73.95;96425.27;1767952;79;21143;-84
2021/04/20 07:13:47;;;;;;;15.58;12.43;;;;;;;15.86;73.65;96426.20;1769808;79;21131;-84
2021/04/20 07:16:32;;;;;;;15.75;13.58;;;;;;;17.38;72.31;96420.12;1768028;79;21157;-85
2021/04/20 07:19:27;;;;;;;17.92;14.85;;;;;;;18.97;67.07;96427.33;1779589;79;21654;-82
2021/04/20 07:22:11;;;;;;;16.12;14.18;;;;;;;19.23;60.19;96420.27;1773774;80;21125;-83
2021/04/20 07:25:08;;;;;;;15.78;13.18;;;;;;;17.53;56.13;96425.45;1775487;79;21122;-83
2021/04/20 07:28:27;;;;;;;17.20;14.03;;;;;;;15.97;57.99;96423.98;1781338;79;21483;-83
2021/04/20 07:31:20;;;;;;;15.25;12.80;;;;;;;14.84;58.89;96433.20;1733025;79;21126;-84
2021/04/20 07:34:11;;;;;;;16.23;13.18;;;;;;;14.18;59.25;96438.91;1770956;80;21158;-84
2021/04/20 07:37:13;;;;;;;19.80;15.05;;;;;;;13.61;61.35;96437.34;1774980;80;21131;-84
2021/04/20 07:40:12;;;;;;;17.73;14.38;;;;;;;13.82;63.27;96432.89;1784634;79;21160;-83
2021/04/20 07:43:16;;;;;;;17.67;14.28;;;;;;;14.10;63.95;96438.88;1777357;80;21176;-83
2021/04/20 07:46:06;;;;;;;18.17;15.00;;;;;;;15.17;65.43;96442.16;1765158;80;21176;-83
2021/04/20 07:48:48;;;;;;;18.40;15.15;;;;;;;17.83;62.40;96431.54;1785938;79;21144;-83
2021/04/20 07:51:57;;;;;;;17.02;13.83;;;;;;;18.34;59.75;96432.95;1764226;80;21144;-84
2021/04/20 07:55:07;;;;;;;17.60;13.32;;;;;;;17.68;58.83;96430.24;1772992;80;21129;-83
2021/04/20 07:57:45;;;;;;;19.40;15.48;;;;;;;16.61;59.55;96429.34;1771667;80;21082;-84
2021/04/20 08:00:20;;;;;;;19.00;14.40;;;;;;;15.40;60.01;96437.48;1785732;80;21430;-83
2021/04/20 08:03:19;;;;;;;20.17;16.25;;;;;;;14.40;59.40;96438.11;1765685;80;21136;-83
2021/04/20 08:06:03;;;;;;;22.73;17.15;;;;;;;13.26;60.76;96436.27;1780331;79;21144;-83
2021/04/20 08:08:59;;;;;;;20.55;16.77;;;;;;;12.44;63.09;96439.72;1785565;79;21515;-83
2021/04/20 08:11:33;;;;;;;20.00;15.72;;;;;;;12.69;64.85;96440.33;1748722;81;21507;-84
2021/04/20 08:14:35;;;;;;;21.73;17.12;;;;;;;14.30;64.25;96433.02;1769326;80;21447;-84
2021/04/20 08:17:10;;;;;;;19.90;16.80;;;;;;;16.53;62.48;96429.59;1756891;80;21194;-84
2021/04/20 08:22:45;;;;;;;19.05;16.55;;;;;;;20.99;53.48;96420.04;1805687;79;23414;-84
2021/04/20 08:25:35;;;;;;;16.48;14.68;;;;;;;22.19;52.67;96416.22;1775626;79;21134;-84
2021/04/20 08:28:46;;;;;;;18.75;15.50;;;;;;;22.84;47.76;96414.09;1773660;80;21697;-84
2021/04/20 08:31:39;;;;;;;17.35;15.45;;;;;;;22.84;46.73;96418.14;1769999;80;21116;-84
2021/04/20 08:34:18;;;;;;;17.87;15.18;;;;;;;22.20;49.73;96415.86;1777269;79;21311;-84
2021/04/20 08:37:03;;;;;;;16.55;14.03;;;;;;;20.07;51.26;96419.03;1794833;79;21484;-83
2021/04/20 08:40:27;;;;;;;16.57;13.75;;;;;;;20.07;51.26;96419.03;1791095;79;21135;-84
2021/04/20 08:43:25;;;;;;;17.42;12.58;;;;;;;19.24;50.66;96406.48;1785677;79;21552;-83
2021/04/20 08:46:25;;;;;;;19.57;14.35;;;;;;;18.42;52.66;96417.07;1785342;79;21171;-83
2021/04/20 08:49:20;;;;;;;17.17;14.58;;;;;;;20.10;49.61;96415.08;1779741;79;21159;-83
2021/04/20 08:52:04;;;;;;;19.02;14.53;;;;;;;18.62;49.06;96419.69;1777586;79;21112;-83
2021/04/20 08:55:07;;;;;;;16.42;13.48;;;;;;;18.75;53.42;96419.17;1780446;79;21470;-84
2021/04/20 08:58:18;;;;;;;16.37;13.80;;;;;;;20.71;53.12;96413.41;1790170;79;21514;-83
2021/04/20 09:01:23;;;;;;;;;;;;;;;21.21;50.83;96409.16;1775141;79;21503;-84
2021/04/20 09:04:16;;;;;;;17.60;13.10;;;;;;;20.59;52.08;96406.76;1774908;80;20124;-83
2021/04/20 09:06:51;;;;;;;16.62;13.88;;;;;;;22.88;53.08;96397.34;1766423;80;21274;-84
2021/04/20 09:09:22;;;;;;;17.60;14.20;;;;;;;22.98;48.50;96402.92;1767249;80;21115;-84
2021/04/20 09:12:01;;;;;;;17.80;14.07;;;;;;;23.36;41.50;96404.61;1785892;79;21147;-84
2021/04/20 09:14:33;;;;;;;18.92;13.10;;;;;;;21.62;43.11;96401.59;1779930;80;21159;-83
2021/04/20 09:17:08;;;;;;;19.02;14.50;;;;;;;21.04;43.01;96404.94;1782252;79;21124;-84
2021/04/20 09:19:56;;;;;;;18.10;14.40;;;;;;;20.16;43.52;96394.88;1778909;79;21124;-83
2021/04/20 09:22:49;;;;;;;18.05;13.70;;;;;;;19.46;47.38;96394.46;1782850;80;21143;-84
2021/04/20 09:25:37;;;;;;;17.32;13.18;;;;;;;18.99;49.48;96399.00;1785595;80;21502;-84
2021/04/20 09:28:25;;;;;;;18.60;13.60;;;;;;;18.99;47.83;96399.00;1783734;79;21161;-84
2021/04/20 09:30:59;;;;;;;15.88;12.70;;;;;;;18.38;49.99;96399.52;1777071;79;21160;-84
2021/04/20 09:33:49;;;;;;;18.35;13.55;;;;;;;17.97;48.75;96399.86;1782934;79;21118;-84
2021/04/20 09:36:18;;;;;;;19.73;14.90;;;;;;;17.49;50.27;96397.73;1772658;79;21124;-84
2021/04/20 09:38:49;;;;;;;20.48;14.65;;;;;;;16.94;47.40;96396.05;1782547;79;21112;-84
2021/04/20 09:41:30;;;;;;;19.62;13.98;;;;;;;15.98;51.20;96395.59;1797617;79;21115;-84
2021/04/20 09:44:16;;;;;;;;;;;;;;;15.66;51.93;96399.58;1788077;80;21482;-83
2021/04/20 09:46:51;;;;;;;19.32;13.08;;;;;;;15.45;52.46;96399.92;1738889;81;20134;-83
2021/04/20 09:49:59;;;;;;;17.57;13.18;;;;;;;15.31;53.11;96401.41;1736157;81;21153;-83
2021/04/20 09:52:31;;;;;;;16.95;12.00;;;;;;;15.31;52.93;96404.08;1759292;81;21118;-83
2021/04/20 09:55:15;;;;;;;17.85;13.30;;;;;;;15.20;53.69;96396.16;1756130;81;21122;-83
2021/04/20 09:57:47;;;;;;;15.58;11.48;;;;;;;15.04;53.89;96400.34;1720398;82;21597;-83
2021/04/20 10:00:16;;;;;;;15.88;11.43;;;;;;;14.82;52.67;96400.70;1715230;81;21139;-83
2021/04/20 10:03:16;;;;;;;17.35;13.18;;;;;;;14.46;54.08;96402.22;1731702;82;21191;-83
2021/04/20 10:05:57;;;;;;;18.73;14.60;;;;;;;14.11;54.19;96392.47;1712420;82;21128;-84
2021/04/20 10:09:05;;;;;;;19.48;13.45;;;;;;;14.17;55.90;96392.02;1720200;82;21159;-84
2021/04/20 10:11:40;;;;;;;17.10;12.95;;;;;;;14.52;55.59;96388.22;1716951;83;21512;-84
2021/04/20 10:14:41;;;;;;;21.07;14.95;;;;;;;14.74;56.38;96388.12;1717091;83;21215;-84
2021/04/20 10:17:17;;;;;;;;;;;;;;;14.74;56.23;96389.45;1735217;82;21464;-83
2021/04/20 10:20:01;;;;;;;20.97;14.35;;;;;;;14.58;56.29;96390.97;1752122;81;20199;-83
2021/04/20 10:22:45;;;;;;;21.10;14.35;;;;;;;14.49;56.41;96394.14;1710646;81;21135;-83
2021/04/20 10:25:34;;;;;;;23.15;15.38;;;;;;;14.40;56.66;96390.64;1708936;82;21124;-83
2021/04/20 10:31:09;;;;;;;17.67;12.73;;;;;;;15.09;57.28;96380.20;1766974;80;22285;-83
2021/04/20 10:33:38;;;;;;;16.32;11.60;;;;;;;15.32;57.04;96373.59;1718631;82;21092;-83
2021/04/20 10:36:06;;;;;;;18.52;12.70;;;;;;;15.48;55.50;96376.58;1712862;82;21194;-83
2021/04/20 10:38:34;;;;;;;16.87;10.98;;;;;;;15.58;56.40;96371.48;1716922;82;21181;-83
2021/04/20 10:41:06;;;;;;;16.02;10.23;;;;;;;15.80;56.09;96373.23;1740717;81;21137;-83
2021/04/20 10:43:34;;;;;;;13.35;10.05;;;;;;;16.02;55.24;96361.77;1730930;81;21166;-84
2021/04/20 10:46:09;;;;;;;14.73;9.93;;;;;;;15.86;50.96;96364.71;1737249;81;21517;-83
2021/04/20 10:48:38;;;;;;;15.00;10.03;;;;;;;15.22;52.79;96361.91;1738194;81;21149;-84
2021/04/20 10:51:07;;;;;;;11.30;7.95;;;;;;;14.97;53.71;96368.00;1736268;81;21184;-84
2021/04/20 10:53:36;;;;;;;9.75;6.55;;;;;;;15.30;53.74;96367.79;1734460;81;21506;-84
2021/04/20 10:56:09;;;;;;;12.80;8.28;;;;;;;15.19;49.64;96359.06;1748525;81;21131;-84
2021/04/20 10:58:48;;;;;;;10.58;7.28;;;;;;;15.18;52.63;96364.95;1732922;81;21456;-84
2021/04/20 11:01:22;;;;;;;12.65;7.25;;;;;;;15.45;52.61;96361.97;1731692;81;21198;-84
2021/04/20 11:03:52;;;;;;;13.43;8.48;;;;;;;15.42;52.46;96359.16;1738157;81;21449;-84
2021/04/20 11:06:57;;;;;;;12.40;8.78;;;;;;;15.68;52.01;96359.17;1743953;81;21483;-84
2021/04/20 11:09:33;;;;;;;13.93;9.43;;;;;;;15.84;52.09;96356.78;1748319;81;21122;-84
2021/04/20 11:12:18;;;;;;;14.90;10.55;;;;;;;15.79;50.94;96356.95;1737464;81;21144;-83
2021/04/20 11:14:51;;;;;;;12.98;9.35;;;;;;;15.69;51.31;96350.83;1735449;81;21129;-84
2021/04/20 11:17:44;;;;;;;12.88;8.80;;;;;;;15.95;52.47;96341.98;1738612;81;21185;-84
2021/04/20 11:20:44;;;;;;;11.75;7.75;;;;;;;16.23;51.70;96334.34;1746243;81;21127;-84
2021/04/20 11:23:30;;;;;;;11.33;7.90;;;;;;;16.61;51.91;96331.66;1729890;81;21523;-84
2021/04/20 11:26:09;;;;;;;10.55;8.20;;;;;;;16.63;50.92;96332.11;1749036;81;21470;-84
2021/04/20 11:28:56;;;;;;;13.60;9.25;;;;;;;16.50;50.75;96332.56;1744870;81;21183;-84
2021/04/20 11:31:40;;;;;;;11.95;8.08;;;;;;;16.17;49.70;96329.70;1714288;81;21546;-84
2021/04/20 11:34:20;;;;;;;12.55;9.28;;;;;;;15.93;50.64;96336.17;1737809;81;21573;-84
2021/04/20 11:36:56;;;;;;;10.23;7.25;;;;;;;15.73;50.50;96338.95;1728728;81;21270;-84
2021/04/20 11:39:37;;;;;;;10.48;7.03;;;;;;;15.61;50.68;96336.13;1742416;81;21534;-84
2021/04/20 11:42:24;;;;;;;9.58;6.70;;;;;;;15.54;50.50;96330.47;1732844;81;21494;-84
2021/04/20 11:45:06;;;;;;;8.13;5.65;;;;;;;15.43;50.62;96338.02;1743559;81;21552;-84
2021/04/20 11:47:35;;;;;;;8.50;5.60;;;;;;;15.27;50.56;96336.38;1734938;81;21123;-84
2021/04/20 11:50:09;;;;;;;9.97;6.63;;;;;;;15.12;50.00;96336.84;1736246;81;21126;-84
2021/04/20 11:52:37;;;;;;;15.28;9.48;;;;;;;15.03;50.47;96336.83;1708523;81;21154;-84
2021/04/20 11:55:10;;;;;;;16.97;11.28;;;;;;;14.96;51.46;96334.41;1748629;81;21461;-84
2021/04/20 11:57:41;;;;;;;16.00;11.00;;;;;;;14.89;52.20;96343.41;1752653;81;21194;-83
2021/04/20 12:00:12;;;;;;;16.17;11.40;;;;;;;14.81;52.75;96333.75;1734592;81;21142;-84
2021/04/20 12:02:40;;;;;;;;;;;;;;;14.76;53.16;96335.22;1724918;81;21317;-83
2021/04/20 12:05:11;;;;;;;13.75;9.50;;;;;;;14.84;52.68;96330.45;1706198;83;20174;-83
2021/04/20 12:07:40;;;;;;;13.65;9.13;;;;;;;14.97;52.94;96329.30;1739510;81;21118;-83
2021/04/20 12:10:18;;;;;;;12.58;9.33;;;;;;;15.17;52.83;96332.67;1746175;81;21201;-83
2021/04/20 12:12:51;;;;;;;16.50;11.63;;;;;;;15.25;52.36;96325.78;1727361;81;21563;-83